sensor_id;sensor_type;location;lat;lon;timestamp;pressure;altitude;pressure_sealevel;temperature;humidity
71194;BME280;58903;47.210;8.618;2023-08-30T00:00:15;93707.97;;;27.75;42.66
71194;BME280;58903;47.210;8.618;2023-08-30T00:02:48;93700.94;;;27.74;42.94
71194;BME280;58903;47.210;8.618;2023-08-30T00:06:01;93696.91;;;27.75;42.64
71194;BME280;58903;47.210;8.618;2023-08-30T00:08:28;93693.94;;;27.73;42.24
71194;BME280;58903;47.210;8.618;2023-08-30T00:10:57;93702.25;;;27.73;42.76
71194;BME280;58903;47.210;8.618;2023-08-30T00:13:26;93703.50;;;27.72;42.84
71194;BME280;58903;47.210;8.618;2023-08-30T00:15:52;93705.53;;;27.71;43.00
71194;BME280;58903;47.210;8.618;2023-08-30T00:18:18;93696.31;;;27.69;42.99
71194;BME280;58903;47.210;8.618;2023-08-30T00:20:47;93700.53;;;27.70;42.73
71194;BME280;58903;47.210;8.618;2023-08-30T00:23:29;93701.63;;;27.67;42.92
71194;BME280;58903;47.210;8.618;2023-08-30T00:26:04;93699.09;;;27.69;42.55
71194;BME280;58903;47.210;8.618;2023-08-30T00:28:39;93695.38;;;27.66;42.71
71194;BME280;58903;47.210;8.618;2023-08-30T00:31:07;93692.06;;;27.68;43.01
71194;BME280;58903;47.210;8.618;2023-08-30T00:33:35;93683.56;;;27.66;42.76
71194;BME280;58903;47.210;8.618;2023-08-30T00:36:04;93688.34;;;27.65;43.02
71194;BME280;58903;47.210;8.618;2023-08-30T00:38:35;93691.13;;;27.65;42.61
71194;BME280;58903;47.210;8.618;2023-08-30T00:41:21;93688.34;;;27.65;42.99
71194;BME280;58903;47.210;8.618;2023-08-30T00:43:56;93687.59;;;27.64;42.79
71194;BME280;58903;47.210;8.618;2023-08-30T00:46:23;93689.09;;;27.66;42.86
71194;BME280;58903;47.210;8.618;2023-08-30T00:48:50;93684.66;;;27.62;43.02
71194;BME280;58903;47.210;8.618;2023-08-30T00:51:22;93684.66;;;27.62;42.74
71194;BME280;58903;47.210;8.618;2023-08-30T00:53:54;93688.72;;;27.61;42.79
71194;BME280;58903;47.210;8.618;2023-08-30T00:56:21;93685.94;;;27.61;42.89
71194;BME280;58903;47.210;8.618;2023-08-30T00:58:48;93693.47;;;27.61;42.75
71194;BME280;58903;47.210;8.618;2023-08-30T01:01:18;93692.00;;;27.60;42.81
71194;BME280;58903;47.210;8.618;2023-08-30T01:03:44;93685.75;;;27.59;42.61
71194;BME280;58903;47.210;8.618;2023-08-30T01:06:19;93689.03;;;27.58;43.07
71194;BME280;58903;47.210;8.618;2023-08-30T01:08:50;93680.53;;;27.56;42.78
71194;BME280;58903;47.210;8.618;2023-08-30T01:17:56;93679.81;;;27.55;43.02
71194;BME280;58903;47.210;8.618;2023-08-30T01:20:36;93678.13;;;27.52;43.08
71194;BME280;58903;47.210;8.618;2023-08-30T01:29:37;93678.53;;;27.56;42.98
71194;BME280;58903;47.210;8.618;2023-08-30T01:32:14;93673.94;;;27.59;42.66
71194;BME280;58903;47.210;8.618;2023-08-30T01:34:58;93675.75;;;27.56;43.00
71194;BME280;58903;47.210;8.618;2023-08-30T01:37:25;93667.84;;;27.53;42.94
71194;BME280;58903;47.210;8.618;2023-08-30T01:39:59;93658.78;;;27.52;43.07
71194;BME280;58903;47.210;8.618;2023-08-30T01:42:41;93666.53;;;27.54;43.54
71194;BME280;58903;47.210;8.618;2023-08-30T01:45:18;93667.28;;;27.54;43.08
71194;BME280;58903;47.210;8.618;2023-08-30T01:48:08;93661.34;;;27.50;42.96
71194;BME280;58903;47.210;8.618;2023-08-30T01:50:40;93670.03;;;27.54;43.11
71194;BME280;58903;47.210;8.618;2023-08-30T01:53:12;93663.03;;;27.53;43.18
71194;BME280;58903;47.210;8.618;2023-08-30T01:55:39;93663.03;;;27.53;42.66
71194;BME280;58903;47.210;8.618;2023-08-30T01:58:20;93660.81;;;27.52;42.93
71194;BME280;58903;47.210;8.618;2023-08-30T02:00:55;93661.56;;;27.52;43.31
71194;BME280;58903;47.210;8.618;2023-08-30T02:03:23;93662.31;;;27.53;42.52
71194;BME280;58903;47.210;8.618;2023-08-30T02:06:14;93647.75;;;27.52;43.05
71194;BME280;58903;47.210;8.618;2023-08-30T02:09:04;93655.09;;;27.50;42.67
71194;BME280;58903;47.210;8.618;2023-08-30T02:11:37;93657.09;;;27.49;43.09
71194;BME280;58903;47.210;8.618;2023-08-30T02:14:42;93648.09;;;27.49;42.90
71194;BME280;58903;47.210;8.618;2023-08-30T02:17:10;93652.88;;;27.48;43.10
71194;BME280;58903;47.210;8.618;2023-08-30T02:19:39;93643.09;;;27.47;42.84
71194;BME280;58903;47.210;8.618;2023-08-30T02:22:17;93643.84;;;27.48;43.13
71194;BME280;58903;47.210;8.618;2023-08-30T02:25:02;93645.13;;;27.47;43.19
71194;BME280;58903;47.210;8.618;2023-08-30T02:27:40;93648.41;;;27.45;43.30
71194;BME280;58903;47.210;8.618;2023-08-30T02:30:27;93640.13;;;27.45;43.12
71194;BME280;58903;47.210;8.618;2023-08-30T02:32:53;93644.19;;;27.44;43.01
71194;BME280;58903;47.210;8.618;2023-08-30T02:35:23;93646.75;;;27.42;43.07
71194;BME280;58903;47.210;8.618;2023-08-30T02:38:16;93641.44;;;27.44;43.23
71194;BME280;58903;47.210;8.618;2023-08-30T02:40:51;93644.72;;;27.43;43.18
71194;BME280;58903;47.210;8.618;2023-08-30T02:43:28;93640.69;;;27.44;42.71
71194;BME280;58903;47.210;8.618;2023-08-30T02:46:04;93637.38;;;27.45;42.59
71194;BME280;58903;47.210;8.618;2023-08-30T02:48:51;93638.66;;;27.44;42.97
71194;BME280;58903;47.210;8.618;2023-08-30T02:51:18;93634.41;;;27.43;43.12
71194;BME280;58903;47.210;8.618;2023-08-30T02:53:44;93630.38;;;27.44;43.31
71194;BME280;58903;47.210;8.618;2023-08-30T02:56:10;93634.09;;;27.47;42.87
71194;BME280;58903;47.210;8.618;2023-08-30T02:58:48;93630.00;;;27.40;43.06
71194;BME280;58903;47.210;8.618;2023-08-30T03:01:46;93634.22;;;27.41;42.98
71194;BME280;58903;47.210;8.618;2023-08-30T03:04:43;93632.75;;;27.40;42.95
71194;BME280;58903;47.210;8.618;2023-08-30T03:07:13;93638.47;;;27.42;42.95
71194;BME280;58903;47.210;8.618;2023-08-30T03:09:41;93636.63;;;27.45;42.84
71194;BME280;58903;47.210;8.618;2023-08-30T03:12:18;93634.09;;;27.47;43.27
71194;BME280;58903;47.210;8.618;2023-08-30T03:15:03;93630.97;;;27.50;43.00
71194;BME280;58903;47.210;8.618;2023-08-30T03:17:45;93632.44;;;27.51;42.66
71194;BME280;58903;47.210;8.618;2023-08-30T03:20:44;93625.66;;;27.52;42.69
71194;BME280;58903;47.210;8.618;2023-08-30T03:23:29;93626.41;;;27.53;42.47
71194;BME280;58903;47.210;8.618;2023-08-30T03:25:58;93629.47;;;27.49;42.96
71194;BME280;58903;47.210;8.618;2023-08-30T03:28:26;93626.72;;;27.49;42.97
71194;BME280;58903;47.210;8.618;2023-08-30T03:30:54;93632.63;;;27.53;42.33
71194;BME280;58903;47.210;8.618;2023-08-30T03:33:20;93626.91;;;27.51;42.76
71194;BME280;58903;47.210;8.618;2023-08-30T03:35:48;93631.19;;;27.52;42.25
71194;BME280;58903;47.210;8.618;2023-08-30T03:38:14;93625.66;;;27.52;42.92
71194;BME280;58903;47.210;8.618;2023-08-30T03:40:53;93635.94;;;27.52;42.37
71194;BME280;58903;47.210;8.618;2023-08-30T03:43:21;93635.94;;;27.52;42.81
71194;BME280;58903;47.210;8.618;2023-08-30T03:46:18;93639.25;;;27.50;42.92
71194;BME280;58903;47.210;8.618;2023-08-30T03:49:01;93643.28;;;27.49;42.96
71194;BME280;58903;47.210;8.618;2023-08-30T03:51:29;93633.53;;;27.48;42.68
71194;BME280;58903;47.210;8.618;2023-08-30T03:53:55;93644.59;;;27.48;42.81
71194;BME280;58903;47.210;8.618;2023-08-30T03:56:26;93647.56;;;27.50;42.96
71194;BME280;58903;47.210;8.618;2023-08-30T03:58:55;93649.38;;;27.48;42.40
71194;BME280;58903;47.210;8.618;2023-08-30T04:01:21;93644.41;;;27.46;42.68
71194;BME280;58903;47.210;8.618;2023-08-30T04:03:49;93648.09;;;27.49;42.64
71194;BME280;58903;47.210;8.618;2023-08-30T04:06:24;93643.28;;;27.49;43.28
71194;BME280;58903;47.210;8.618;2023-08-30T04:09:00;93642.56;;;27.49;42.79
71194;BME280;58903;47.210;8.618;2023-08-30T04:11:37;93649.38;;;27.48;42.84
71194;BME280;58903;47.210;8.618;2023-08-30T04:14:04;93650.66;;;27.47;42.99
71194;BME280;58903;47.210;8.618;2023-08-30T04:17:00;93644.59;;;27.48;42.67
71194;BME280;58903;47.210;8.618;2023-08-30T04:19:35;93639.63;;;27.47;42.58
71194;BME280;58903;47.210;8.618;2023-08-30T04:22:02;93642.91;;;27.45;42.89
71194;BME280;58903;47.210;8.618;2023-08-30T04:25:04;93644.59;;;27.48;42.74
71194;BME280;58903;47.210;8.618;2023-08-30T04:27:41;93640.72;;;27.51;42.69
71194;BME280;58903;47.210;8.618;2023-08-30T04:30:17;93629.47;;;27.49;42.44
71194;BME280;58903;47.210;8.618;2023-08-30T04:32:52;93625.81;;;27.47;42.79
71194;BME280;58903;47.210;8.618;2023-08-30T04:35:20;93633.53;;;27.48;42.88
71194;BME280;58903;47.210;8.618;2023-08-30T04:37:46;93636.84;;;27.47;42.74
71194;BME280;58903;47.210;8.618;2023-08-30T04:40:14;93634.63;;;27.45;42.57
71194;BME280;58903;47.210;8.618;2023-08-30T04:42:40;93629.44;;;27.42;42.52
71194;BME280;58903;47.210;8.618;2023-08-30T04:45:08;93637.38;;;27.45;42.89
71194;BME280;58903;47.210;8.618;2023-08-30T04:47:38;93632.75;;;27.40;42.61
71194;BME280;58903;47.210;8.618;2023-08-30T04:50:11;93634.63;;;27.45;42.69
71194;BME280;58903;47.210;8.618;2023-08-30T04:52:45;93631.09;;;27.45;42.50
71194;BME280;58903;47.210;8.618;2023-08-30T04:55:16;93630.38;;;27.44;42.53
71194;BME280;58903;47.210;8.618;2023-08-30T04:58:06;93638.47;;;27.42;42.56
71194;BME280;58903;47.210;8.618;2023-08-30T05:00:34;93634.03;;;27.39;42.41
71194;BME280;58903;47.210;8.618;2023-08-30T05:03:00;93638.28;;;27.40;43.20
71194;BME280;58903;47.210;8.618;2023-08-30T05:05:26;93629.75;;;27.38;42.50
71194;BME280;58903;47.210;8.618;2023-08-30T05:07:53;93630.09;;;27.35;42.60
71194;BME280;58903;47.210;8.618;2023-08-30T05:10:20;93631.38;;;27.34;41.82
71194;BME280;58903;47.210;8.618;2023-08-30T05:12:50;93634.66;;;27.32;42.15
71194;BME280;58903;47.210;8.618;2023-08-30T05:15:18;93639.03;;;27.28;42.31
71194;BME280;58903;47.210;8.618;2023-08-30T05:17:47;93636.09;;;27.26;42.18
71194;BME280;58903;47.210;8.618;2023-08-30T05:20:14;93634.63;;;27.25;42.31
71194;BME280;58903;47.210;8.618;2023-08-30T05:22:40;93634.63;;;27.25;42.24
71194;BME280;58903;47.210;8.618;2023-08-30T05:25:06;93630.38;;;27.24;42.34
71194;BME280;58903;47.210;8.618;2023-08-30T05:27:32;93629.63;;;27.23;42.16
71194;BME280;58903;47.210;8.618;2023-08-30T05:29:58;93624.44;;;27.20;42.63
71194;BME280;58903;47.210;8.618;2023-08-30T05:32:24;93615.81;;;27.23;42.29
71194;BME280;58903;47.210;8.618;2023-08-30T05:34:52;93612.84;;;27.21;42.38
71194;BME280;58903;47.210;8.618;2023-08-30T05:37:20;93624.25;;;27.18;42.39
71194;BME280;58903;47.210;8.618;2023-08-30T05:39:57;93626.81;;;27.16;42.30
71194;BME280;58903;47.210;8.618;2023-08-30T05:42:31;93626.41;;;27.12;42.63
71194;BME280;58903;47.210;8.618;2023-08-30T05:45:29;93632.88;;;27.14;42.46
71194;BME280;58903;47.210;8.618;2023-08-30T05:48:03;93629.16;;;27.12;42.55
71194;BME280;58903;47.210;8.618;2023-08-30T05:50:40;93627.13;;;27.12;42.59
71194;BME280;58903;47.210;8.618;2023-08-30T05:53:31;93629.38;;;27.14;42.56
71194;BME280;58903;47.210;8.618;2023-08-30T05:55:57;93628.22;;;27.09;42.72
71194;BME280;58903;47.210;8.618;2023-08-30T05:58:35;93633.75;;;27.09;42.52
71194;BME280;58903;47.210;8.618;2023-08-30T06:01:39;93635.22;;;27.10;42.76
71194;BME280;58903;47.210;8.618;2023-08-30T06:04:07;93637.25;;;27.10;42.30
71194;BME280;58903;47.210;8.618;2023-08-30T06:06:34;93625.25;;;27.07;42.82
71194;BME280;58903;47.210;8.618;2023-08-30T06:09:02;93634.81;;;27.06;42.48
71194;BME280;58903;47.210;8.618;2023-08-30T06:11:42;93642.03;;;27.09;42.88
71194;BME280;58903;47.210;8.618;2023-08-30T06:14:13;93637.78;;;27.08;42.74
71194;BME280;58903;47.210;8.618;2023-08-30T06:16:39;93646.81;;;27.09;42.73
71194;BME280;58903;47.210;8.618;2023-08-30T06:19:12;93648.09;;;27.08;42.60
71194;BME280;58903;47.210;8.618;2023-08-30T06:21:38;93647.53;;;27.09;43.03
71194;BME280;58903;47.210;8.618;2023-08-30T06:24:08;93651.06;;;27.10;42.99
71194;BME280;58903;47.210;8.618;2023-08-30T06:26:34;93641.81;;;27.07;42.85
71194;BME280;58903;47.210;8.618;2023-08-30T06:29:18;93642.03;;;27.09;43.06
71194;BME280;58903;47.210;8.618;2023-08-30T06:31:45;93641.63;;;27.05;42.80
71194;BME280;58903;47.210;8.618;2023-08-30T06:34:45;93643.09;;;27.06;43.14
71194;BME280;58903;47.210;8.618;2023-08-30T06:37:19;93639.94;;;27.02;42.93
71194;BME280;58903;47.210;8.618;2023-08-30T06:40:00;93641.44;;;27.03;42.93
71194;BME280;58903;47.210;8.618;2023-08-30T06:43:03;93651.38;;;27.06;43.27
71194;BME280;58903;47.210;8.618;2023-08-30T06:45:39;93637.72;;;27.01;43.05
71194;BME280;58903;47.210;8.618;2023-08-30T06:48:36;93650.09;;;27.07;43.09
71194;BME280;58903;47.210;8.618;2023-08-30T06:51:11;93651.38;;;27.06;43.16
71194;BME280;58903;47.210;8.618;2023-08-30T06:53:37;93650.84;;;27.08;42.97
71194;BME280;58903;47.210;8.618;2023-08-30T06:56:17;93654.13;;;27.06;42.74
71194;BME280;58903;47.210;8.618;2023-08-30T06:58:43;93655.44;;;27.05;42.86
71194;BME280;58903;47.210;8.618;2023-08-30T07:01:09;93652.47;;;27.03;43.34
71194;BME280;58903;47.210;8.618;2023-08-30T07:03:44;93649.91;;;27.05;42.59
71194;BME280;58903;47.210;8.618;2023-08-30T07:06:23;93653.94;;;27.04;43.25
71194;BME280;58903;47.210;8.618;2023-08-30T07:09:09;93652.13;;;27.07;43.16
71194;BME280;58903;47.210;8.618;2023-08-30T07:11:36;93653.06;;;27.09;42.92
71194;BME280;58903;47.210;8.618;2023-08-30T07:14:11;93650.31;;;27.09;42.80
71194;BME280;58903;47.210;8.618;2023-08-30T07:16:41;93648.41;;;27.04;43.14
71194;BME280;58903;47.210;8.618;2023-08-30T07:19:09;93652.66;;;27.05;43.07
71194;BME280;58903;47.210;8.618;2023-08-30T07:22:13;93652.47;;;27.03;43.08
71194;BME280;58903;47.210;8.618;2023-08-30T07:24:45;93650.78;;;27.00;43.20
71194;BME280;58903;47.210;8.618;2023-08-30T07:27:20;93655.94;;;27.04;43.02
71194;BME280;58903;47.210;8.618;2023-08-30T07:29:52;93648.97;;;27.03;43.21
71194;BME280;58903;47.210;8.618;2023-08-30T07:32:28;93657.97;;;27.03;42.62
71194;BME280;58903;47.210;8.618;2023-08-30T07:35:09;93649.50;;;27.01;43.27
71194;BME280;58903;47.210;8.618;2023-08-30T07:37:45;93639.94;;;27.02;43.29
71194;BME280;58903;47.210;8.618;2023-08-30T07:40:49;93650.03;;;27.00;43.27
71194;BME280;58903;47.210;8.618;2023-08-30T07:43:24;93649.50;;;27.01;42.94
71194;BME280;58903;47.210;8.618;2023-08-30T07:45:50;93643.97;;;27.01;43.35
71194;BME280;58903;47.210;8.618;2023-08-30T07:48:42;93644.50;;;27.00;43.20
71194;BME280;58903;47.210;8.618;2023-08-30T07:51:08;93649.50;;;27.01;43.30
71194;BME280;58903;47.210;8.618;2023-08-30T07:54:04;93650.97;;;27.02;43.00
71194;BME280;58903;47.210;8.618;2023-08-30T07:56:56;93657.25;;;27.03;43.12
71194;BME280;58903;47.210;8.618;2023-08-30T07:59:23;93649.50;;;27.01;43.25
71194;BME280;58903;47.210;8.618;2023-08-30T08:02:08;93645.44;;;27.02;43.13
71194;BME280;58903;47.210;8.618;2023-08-30T08:04:35;93652.88;;;27.07;42.99
71194;BME280;58903;47.210;8.618;2023-08-30T08:07:03;93641.63;;;27.05;43.18
71194;BME280;58903;47.210;8.618;2023-08-30T08:09:32;93646.25;;;27.10;43.52
71194;BME280;58903;47.210;8.618;2023-08-30T08:12:16;93644.78;;;27.09;42.85
71194;BME280;58903;47.210;8.618;2023-08-30T08:14:43;93642.22;;;27.11;42.68
71194;BME280;58903;47.210;8.618;2023-08-30T08:17:11;93646.69;;;27.14;43.04
71194;BME280;58903;47.210;8.618;2023-08-30T08:19:40;93649.22;;;27.12;42.83
71194;BME280;58903;47.210;8.618;2023-08-30T08:22:11;93650.50;;;27.11;43.23
71194;BME280;58903;47.210;8.618;2023-08-30T08:24:41;93650.72;;;27.13;43.20
71194;BME280;58903;47.210;8.618;2023-08-30T08:27:24;93646.69;;;27.14;42.84
71194;BME280;58903;47.210;8.618;2023-08-30T08:30:15;93642.22;;;27.11;42.97
71194;BME280;58903;47.210;8.618;2023-08-30T08:32:45;93653.06;;;27.09;43.07
71194;BME280;58903;47.210;8.618;2023-08-30T08:35:17;93654.34;;;27.08;42.86
71194;BME280;58903;47.210;8.618;2023-08-30T08:37:46;93653.63;;;27.08;43.06
71194;BME280;58903;47.210;8.618;2023-08-30T08:40:12;93661.34;;;27.09;43.07
71194;BME280;58903;47.210;8.618;2023-08-30T08:42:39;93659.53;;;27.12;43.10
71194;BME280;58903;47.210;8.618;2023-08-30T08:45:24;93657.28;;;27.10;43.05
71194;BME280;58903;47.210;8.618;2023-08-30T08:47:57;93657.28;;;27.10;42.99
71194;BME280;58903;47.210;8.618;2023-08-30T08:50:25;93658.03;;;27.11;42.84
71194;BME280;58903;47.210;8.618;2023-08-30T08:52:56;93663.56;;;27.11;42.51
71194;BME280;58903;47.210;8.618;2023-08-30T08:55:26;93657.50;;;27.12;42.77
71194;BME280;58903;47.210;8.618;2023-08-30T08:58:01;93663.00;;;27.12;42.72
71194;BME280;58903;47.210;8.618;2023-08-30T09:00:31;93661.75;;;27.13;43.13
71194;BME280;58903;47.210;8.618;2023-08-30T09:03:06;93661.75;;;27.13;42.97
71194;BME280;58903;47.210;8.618;2023-08-30T09:05:33;93663.97;;;27.15;42.65
71194;BME280;58903;47.210;8.618;2023-08-30T09:08:25;93664.91;;;27.17;42.87
71194;BME280;58903;47.210;8.618;2023-08-30T09:10:51;93663.00;;;27.12;42.99
71194;BME280;58903;47.210;8.618;2023-08-30T09:13:24;93656.03;;;27.11;42.97
71194;BME280;58903;47.210;8.618;2023-08-30T09:15:50;93668.75;;;27.14;42.84
71194;BME280;58903;47.210;8.618;2023-08-30T09:18:17;93666.00;;;27.14;43.34
71194;BME280;58903;47.210;8.618;2023-08-30T09:20:49;93668.53;;;27.12;42.77
71194;BME280;58903;47.210;8.618;2023-08-30T09:23:20;93668.03;;;27.14;43.11
71194;BME280;58903;47.210;8.618;2023-08-30T09:25:54;93670.22;;;27.15;42.76
71194;BME280;58903;47.210;8.618;2023-08-30T09:28:42;93670.97;;;27.16;42.89
71194;BME280;58903;47.210;8.618;2023-08-30T09:31:18;93675.75;;;27.15;42.70
71194;BME280;58903;47.210;8.618;2023-08-30T09:33:50;93668.03;;;27.14;42.45
71194;BME280;58903;47.210;8.618;2023-08-30T09:36:44;93671.53;;;27.14;42.80
71194;BME280;58903;47.210;8.618;2023-08-30T09:39:22;93664.50;;;27.13;42.90
71194;BME280;58903;47.210;8.618;2023-08-30T09:41:58;93667.81;;;27.12;43.05
71194;BME280;58903;47.210;8.618;2023-08-30T09:44:29;93665.78;;;27.12;42.81
71194;BME280;58903;47.210;8.618;2023-08-30T09:47:12;93670.56;;;27.12;42.86
71194;BME280;58903;47.210;8.618;2023-08-30T09:49:55;93665.78;;;27.12;42.90
71194;BME280;58903;47.210;8.618;2023-08-30T09:52:24;93668.53;;;27.12;42.65
71194;BME280;58903;47.210;8.618;2023-08-30T09:54:56;93667.06;;;27.11;42.75
71194;BME280;58903;47.210;8.618;2023-08-30T09:57:28;93661.00;;;27.13;42.90
71194;BME280;58903;47.210;8.618;2023-08-30T10:00:04;93657.50;;;27.12;42.75
71194;BME280;58903;47.210;8.618;2023-08-30T10:02:40;93658.44;;;27.15;43.10
71194;BME280;58903;47.210;8.618;2023-08-30T10:05:08;93655.16;;;27.16;43.09
71194;BME280;58903;47.210;8.618;2023-08-30T10:07:37;93655.88;;;27.17;43.09
71194;BME280;58903;47.210;8.618;2023-08-30T10:10:06;93655.38;;;27.18;43.65
71194;BME280;58903;47.210;8.618;2023-08-30T10:12:37;93655.75;;;27.22;43.77
71194;BME280;58903;47.210;8.618;2023-08-30T10:15:35;93653.00;;;27.22;43.54
71194;BME280;58903;47.210;8.618;2023-08-30T10:18:19;93647.06;;;27.18;44.12
71194;BME280;58903;47.210;8.618;2023-08-30T10:21:07;93648.53;;;27.19;43.73
71194;BME280;58903;47.210;8.618;2023-08-30T10:23:41;93646.00;;;27.21;43.96
71194;BME280;58903;47.210;8.618;2023-08-30T10:26:18;93643.84;;;27.27;44.37
71194;BME280;58903;47.210;8.618;2023-08-30T10:28:47;93634.63;;;27.25;44.47
71194;BME280;58903;47.210;8.618;2023-08-30T10:31:28;93644.38;;;27.26;43.89
71194;BME280;58903;47.210;8.618;2023-08-30T10:34:13;93637.19;;;27.23;44.14
71194;BME280;58903;47.210;8.618;2023-08-30T10:37:10;93638.66;;;27.24;44.01
71194;BME280;58903;47.210;8.618;2023-08-30T10:39:48;93637.91;;;27.23;44.00
71194;BME280;58903;47.210;8.618;2023-08-30T10:42:28;93631.66;;;27.23;43.84
71194;BME280;58903;47.210;8.618;2023-08-30T10:45:22;93636.84;;;27.26;43.74
71194;BME280;58903;47.210;8.618;2023-08-30T10:47:55;93633.72;;;27.30;43.76
71194;BME280;58903;47.210;8.618;2023-08-30T10:50:29;93627.06;;;27.25;43.58
71194;BME280;58903;47.210;8.618;2023-08-30T10:52:58;93630.75;;;27.28;43.60
71194;BME280;58903;47.210;8.618;2023-08-30T10:55:26;93624.72;;;27.29;43.46
71194;BME280;58903;47.210;8.618;2023-08-30T10:58:05;93615.13;;;27.30;43.36
71194;BME280;58903;47.210;8.618;2023-08-30T11:00:32;93623.44;;;27.30;43.37
71194;BME280;58903;47.210;8.618;2023-08-30T11:03:10;93620.47;;;27.28;43.33
71194;BME280;58903;47.210;8.618;2023-08-30T11:05:40;93619.59;;;27.33;43.24
71194;BME280;58903;47.210;8.618;2023-08-30T11:08:17;93624.56;;;27.35;43.41
71194;BME280;58903;47.210;8.618;2023-08-30T11:11:06;93623.31;;;27.36;43.04
71194;BME280;58903;47.210;8.618;2023-08-30T11:13:36;93620.03;;;27.37;43.17
71194;BME280;58903;47.210;8.618;2023-08-30T11:16:04;93617.25;;;27.37;42.95
71194;BME280;58903;47.210;8.618;2023-08-30T11:18:36;93621.28;;;27.36;43.16
71194;BME280;58903;47.210;8.618;2023-08-30T11:21:09;93622.59;;;27.35;42.86
71194;BME280;58903;47.210;8.618;2023-08-30T11:23:39;93612.28;;;27.36;43.31
71194;BME280;58903;47.210;8.618;2023-08-30T11:26:12;93607.47;;;27.36;43.07
71194;BME280;58903;47.210;8.618;2023-08-30T11:28:42;93608.97;;;27.37;42.33
71194;BME280;58903;47.210;8.618;2023-08-30T11:31:27;93606.00;;;27.35;43.35
71194;BME280;58903;47.210;8.618;2023-08-30T11:33:57;93610.44;;;27.38;43.05
71194;BME280;58903;47.210;8.618;2023-08-30T11:36:36;93605.13;;;27.40;42.91
71194;BME280;58903;47.210;8.618;2023-08-30T11:39:16;93603.09;;;27.41;42.28
71194;BME280;58903;47.210;8.618;2023-08-30T11:41:48;93612.13;;;27.41;42.46
71194;BME280;58903;47.210;8.618;2023-08-30T11:44:19;93607.16;;;27.40;42.40
71194;BME280;58903;47.210;8.618;2023-08-30T11:46:46;93601.06;;;27.41;42.31
71194;BME280;58903;47.210;8.618;2023-08-30T11:49:30;93612.31;;;27.43;42.23
71194;BME280;58903;47.210;8.618;2023-08-30T11:51:59;93604.03;;;27.43;42.47
71194;BME280;58903;47.210;8.618;2023-08-30T11:54:25;93613.81;;;27.44;41.92
71194;BME280;58903;47.210;8.618;2023-08-30T11:56:53;93610.84;;;27.42;42.20
71194;BME280;58903;47.210;8.618;2023-08-30T11:59:24;93606.78;;;27.43;42.14
71194;BME280;58903;47.210;8.618;2023-08-30T12:01:54;93610.84;;;27.42;42.39
71194;BME280;58903;47.210;8.618;2023-08-30T12:04:22;93614.34;;;27.43;42.11
71194;BME280;58903;47.210;8.618;2023-08-30T12:07:24;93621.91;;;27.42;42.22
71194;BME280;58903;47.210;8.618;2023-08-30T12:10:04;93621.16;;;27.42;42.25
71194;BME280;58903;47.210;8.618;2023-08-30T12:15:55;93628.34;;;27.45;42.22
71194;BME280;58903;47.210;8.618;2023-08-30T12:18:29;93620.81;;;27.45;42.06
71194;BME280;58903;47.210;8.618;2023-08-30T12:20:58;93624.31;;;27.46;42.29
71194;BME280;58903;47.210;8.618;2023-08-30T12:23:30;93621.00;;;27.47;42.48
71194;BME280;58903;47.210;8.618;2023-08-30T12:26:02;93621.94;;;27.50;42.09
71194;BME280;58903;47.210;8.618;2023-08-30T12:28:38;93631.53;;;27.49;42.24
71194;BME280;58903;47.210;8.618;2023-08-30T12:31:05;93630.22;;;27.50;42.26
71194;BME280;58903;47.210;8.618;2023-08-30T12:33:36;93621.00;;;27.47;42.12
71194;BME280;58903;47.210;8.618;2023-08-30T12:36:17;93623.97;;;27.49;42.48
71194;BME280;58903;47.210;8.618;2023-08-30T12:38:51;93617.16;;;27.50;42.10
71194;BME280;58903;47.210;8.618;2023-08-30T12:41:20;93616.06;;;27.53;41.70
71194;BME280;58903;47.210;8.618;2023-08-30T12:44:05;93616.63;;;27.52;41.92
71194;BME280;58903;47.210;8.618;2023-08-30T12:46:47;93623.09;;;27.54;41.65
71194;BME280;58903;47.210;8.618;2023-08-30T12:49:18;93613.09;;;27.51;41.87
71194;BME280;58903;47.210;8.618;2023-08-30T12:51:47;93610.75;;;27.55;42.28
71194;BME280;58903;47.210;8.618;2023-08-30T12:54:13;93605.75;;;27.54;42.13
71194;BME280;58903;47.210;8.618;2023-08-30T12:56:40;93609.13;;;27.60;42.17
71194;BME280;58903;47.210;8.618;2023-08-30T12:59:06;93603.94;;;27.56;41.61
71194;BME280;58903;47.210;8.618;2023-08-30T13:01:32;93609.66;;;27.58;41.76
71194;BME280;58903;47.210;8.618;2023-08-30T13:04:02;93607.09;;;27.60;41.78
71194;BME280;58903;47.210;8.618;2023-08-30T13:06:29;93609.34;;;27.62;42.21
71194;BME280;58903;47.210;8.618;2023-08-30T13:09:03;93604.72;;;27.64;41.78
71194;BME280;58903;47.210;8.618;2023-08-30T13:11:29;93596.44;;;27.64;41.52
71194;BME280;58903;47.210;8.618;2023-08-30T13:14:02;93611.00;;;27.65;41.80
71194;BME280;58903;47.210;8.618;2023-08-30T13:16:36;93611.75;;;27.66;42.15
71194;BME280;58903;47.210;8.618;2023-08-30T13:19:02;93607.91;;;27.69;42.01
71194;BME280;58903;47.210;8.618;2023-08-30T13:21:28;93605.13;;;27.69;41.93
71194;BME280;58903;47.210;8.618;2023-08-30T13:23:54;93596.69;;;27.74;41.87
71194;BME280;58903;47.210;8.618;2023-08-30T13:26:23;93599.84;;;27.78;41.81
71194;BME280;58903;47.210;8.618;2023-08-30T13:28:48;93600.03;;;27.80;42.01
71194;BME280;58903;47.210;8.618;2023-08-30T13:31:17;93594.19;;;27.84;41.93
71194;BME280;58903;47.210;8.618;2023-08-30T13:33:43;93589.78;;;27.88;42.01
71194;BME280;58903;47.210;8.618;2023-08-30T13:36:10;93595.31;;;27.88;41.61
71194;BME280;58903;47.210;8.618;2023-08-30T13:38:38;93588.84;;;27.86;42.03
71194;BME280;58903;47.210;8.618;2023-08-30T13:41:09;93590.09;;;27.85;42.09
71194;BME280;58903;47.210;8.618;2023-08-30T13:43:45;93595.84;;;27.87;41.81
71194;BME280;58903;47.210;8.618;2023-08-30T13:46:11;93583.84;;;27.84;41.96
71194;BME280;58903;47.210;8.618;2023-08-30T13:48:43;93595.13;;;27.94;42.14
71194;BME280;58903;47.210;8.618;2023-08-30T13:51:11;93590.34;;;27.94;41.65
71194;BME280;58903;47.210;8.618;2023-08-30T13:53:38;93597.75;;;27.99;41.40